sensor_id;sensor_type;location;lat;lon;timestamp;P1;durP1;ratioP1;P2;durP2;ratioP2
14377;SDS011;7272;53.668;9.578;2023-03-17T00:02:20;1.33;;;1.23;;
14377;SDS011;7272;53.668;9.578;2023-03-17T00:05:24;1.87;;;1.40;;
14377;SDS011;7272;53.668;9.578;2023-03-17T00:08:31;1.77;;;1.50;;
14377;SDS011;7272;53.668;9.578;2023-03-17T00:11:35;3.57;;;1.77;;
14377;SDS011;7272;53.668;9.578;2023-03-17T00:14:36;1.50;;;1.40;;
14377;SDS011;7272;53.668;9.578;2023-03-17T00:17:39;2.33;;;1.53;;
14377;SDS011;7272;53.668;9.578;2023-03-17T00:20:41;2.40;;;1.53;;
14377;SDS011;7272;53.668;9.578;2023-03-17T00:23:47;1.83;;;1.53;;
14377;SDS011;7272;53.668;9.578;2023-03-17T00:26:51;1.53;;;1.40;;
14377;SDS011;7272;53.668;9.578;2023-03-17T00:29:53;1.87;;;1.60;;
14377;SDS011;7272;53.668;9.578;2023-03-17T00:32:55;2.00;;;1.50;;
14377;SDS011;7272;53.668;9.578;2023-03-17T00:35:58;1.50;;;1.40;;
14377;SDS011;7272;53.668;9.578;2023-03-17T00:39:02;1.87;;;1.67;;
14377;SDS011;7272;53.668;9.578;2023-03-17T00:42:13;1.80;;;1.40;;
14377;SDS011;7272;53.668;9.578;2023-03-17T00:45:15;1.50;;;1.40;;
14377;SDS011;7272;53.668;9.578;2023-03-17T00:48:19;2.27;;;1.57;;
14377;SDS011;7272;53.668;9.578;2023-03-17T00:51:21;2.80;;;1.70;;
14377;SDS011;7272;53.668;9.578;2023-03-17T00:54:24;1.60;;;1.50;;
14377;SDS011;7272;53.668;9.578;2023-03-17T00:57:27;2.63;;;1.60;;
14377;SDS011;7272;53.668;9.578;2023-03-17T01:00:29;2.67;;;1.70;;
14377;SDS011;7272;53.668;9.578;2023-03-17T01:03:31;1.60;;;1.50;;
14377;SDS011;7272;53.668;9.578;2023-03-17T01:06:33;1.50;;;1.30;;
14377;SDS011;7272;53.668;9.578;2023-03-17T01:09:37;1.60;;;1.50;;
14377;SDS011;7272;53.668;9.578;2023-03-17T01:12:41;1.60;;;1.50;;
14377;SDS011;7272;53.668;9.578;2023-03-17T01:15:46;1.67;;;1.57;;
14377;SDS011;7272;53.668;9.578;2023-03-17T01:18:49;2.30;;;1.70;;
14377;SDS011;7272;53.668;9.578;2023-03-17T01:21:52;2.40;;;1.67;;
14377;SDS011;7272;53.668;9.578;2023-03-17T01:24:55;1.90;;;1.70;;
14377;SDS011;7272;53.668;9.578;2023-03-17T01:27:57;1.87;;;1.53;;
14377;SDS011;7272;53.668;9.578;2023-03-17T01:31:00;3.00;;;1.77;;
14377;SDS011;7272;53.668;9.578;2023-03-17T01:34:03;2.23;;;2.03;;
14377;SDS011;7272;53.668;9.578;2023-03-17T01:37:05;3.03;;;1.90;;
14377;SDS011;7272;53.668;9.578;2023-03-17T01:40:10;2.20;;;1.77;;
14377;SDS011;7272;53.668;9.578;2023-03-17T01:43:16;1.83;;;1.60;;
14377;SDS011;7272;53.668;9.578;2023-03-17T01:46:24;2.53;;;1.97;;
14377;SDS011;7272;53.668;9.578;2023-03-17T01:49:29;2.73;;;1.90;;
14377;SDS011;7272;53.668;9.578;2023-03-17T01:52:34;1.87;;;1.77;;
14377;SDS011;7272;53.668;9.578;2023-03-17T01:55:40;2.30;;;1.77;;
14377;SDS011;7272;53.668;9.578;2023-03-17T01:58:44;2.10;;;1.90;;
14377;SDS011;7272;53.668;9.578;2023-03-17T02:01:51;1.93;;;1.73;;
14377;SDS011;7272;53.668;9.578;2023-03-17T02:04:57;1.90;;;1.80;;
14377;SDS011;7272;53.668;9.578;2023-03-17T02:08:00;1.80;;;1.67;;
14377;SDS011;7272;53.668;9.578;2023-03-17T02:11:05;1.80;;;1.67;;
14377;SDS011;7272;53.668;9.578;2023-03-17T02:14:09;2.67;;;1.70;;
14377;SDS011;7272;53.668;9.578;2023-03-17T02:17:11;2.03;;;1.80;;
14377;SDS011;7272;53.668;9.578;2023-03-17T02:24:00;1.90;;;1.70;;
14377;SDS011;7272;53.668;9.578;2023-03-17T02:27:05;2.10;;;1.90;;
14377;SDS011;7272;53.668;9.578;2023-03-17T02:30:14;4.30;;;1.70;;
14377;SDS011;7272;53.668;9.578;2023-03-17T02:33:22;2.33;;;1.80;;
14377;SDS011;7272;53.668;9.578;2023-03-17T02:36:28;1.97;;;1.70;;
14377;SDS011;7272;53.668;9.578;2023-03-17T02:39:31;2.33;;;2.13;;
14377;SDS011;7272;53.668;9.578;2023-03-17T02:42:33;1.80;;;1.70;;
14377;SDS011;7272;53.668;9.578;2023-03-17T02:45:35;2.33;;;2.20;;
14377;SDS011;7272;53.668;9.578;2023-03-17T02:48:37;3.57;;;1.80;;
14377;SDS011;7272;53.668;9.578;2023-03-17T02:51:40;1.60;;;1.50;;
14377;SDS011;7272;53.668;9.578;2023-03-17T02:54:43;2.30;;;1.77;;
14377;SDS011;7272;53.668;9.578;2023-03-17T02:57:45;2.13;;;1.93;;
14377;SDS011;7272;53.668;9.578;2023-03-17T03:00:47;2.10;;;1.80;;
14377;SDS011;7272;53.668;9.578;2023-03-17T03:03:50;2.33;;;2.13;;
14377;SDS011;7272;53.668;9.578;2023-03-17T03:06:52;4.37;;;2.00;;
14377;SDS011;7272;53.668;9.578;2023-03-17T03:09:56;3.13;;;2.23;;
14377;SDS011;7272;53.668;9.578;2023-03-17T03:12:58;2.20;;;2.00;;
14377;SDS011;7272;53.668;9.578;2023-03-17T03:16:00;1.80;;;1.67;;
14377;SDS011;7272;53.668;9.578;2023-03-17T03:19:03;1.90;;;1.80;;
14377;SDS011;7272;53.668;9.578;2023-03-17T03:22:05;2.07;;;1.70;;
14377;SDS011;7272;53.668;9.578;2023-03-17T03:25:09;1.80;;;1.70;;
14377;SDS011;7272;53.668;9.578;2023-03-17T03:28:11;2.37;;;2.17;;
14377;SDS011;7272;53.668;9.578;2023-03-17T03:31:13;2.20;;;2.00;;
14377;SDS011;7272;53.668;9.578;2023-03-17T03:34:15;1.93;;;1.80;;
14377;SDS011;7272;53.668;9.578;2023-03-17T03:37:17;2.37;;;2.03;;
14377;SDS011;7272;53.668;9.578;2023-03-17T03:40:21;3.27;;;2.00;;
14377;SDS011;7272;53.668;9.578;2023-03-17T03:43:23;1.90;;;1.77;;
14377;SDS011;7272;53.668;9.578;2023-03-17T03:46:26;2.40;;;2.20;;
14377;SDS011;7272;53.668;9.578;2023-03-17T03:49:28;2.63;;;2.20;;
14377;SDS011;7272;53.668;9.578;2023-03-17T03:52:30;2.50;;;2.27;;
14377;SDS011;7272;53.668;9.578;2023-03-17T03:55:33;1.80;;;1.70;;
14377;SDS011;7272;53.668;9.578;2023-03-17T03:58:36;2.10;;;1.90;;
14377;SDS011;7272;53.668;9.578;2023-03-17T04:01:39;2.03;;;1.87;;
14377;SDS011;7272;53.668;9.578;2023-03-17T04:04:41;2.63;;;2.20;;
14377;SDS011;7272;53.668;9.578;2023-03-17T04:07:43;2.37;;;2.17;;
14377;SDS011;7272;53.668;9.578;2023-03-17T04:10:48;2.60;;;2.40;;
14377;SDS011;7272;53.668;9.578;2023-03-17T04:13:50;2.50;;;2.20;;
14377;SDS011;7272;53.668;9.578;2023-03-17T04:16:52;2.23;;;2.03;;
14377;SDS011;7272;53.668;9.578;2023-03-17T04:19:55;2.57;;;2.30;;
14377;SDS011;7272;53.668;9.578;2023-03-17T04:22:57;2.40;;;2.20;;
14377;SDS011;7272;53.668;9.578;2023-03-17T04:26:00;2.50;;;2.30;;
14377;SDS011;7272;53.668;9.578;2023-03-17T04:29:03;2.63;;;2.20;;
14377;SDS011;7272;53.668;9.578;2023-03-17T04:32:07;3.67;;;2.50;;
14377;SDS011;7272;53.668;9.578;2023-03-17T04:35:10;2.20;;;2.00;;
14377;SDS011;7272;53.668;9.578;2023-03-17T04:38:14;2.40;;;2.20;;
14377;SDS011;7272;53.668;9.578;2023-03-17T04:41:17;2.60;;;2.40;;
14377;SDS011;7272;53.668;9.578;2023-03-17T04:44:20;2.50;;;2.30;;
14377;SDS011;7272;53.668;9.578;2023-03-17T04:47:22;3.17;;;2.80;;
14377;SDS011;7272;53.668;9.578;2023-03-17T04:50:25;2.40;;;2.10;;
14377;SDS011;7272;53.668;9.578;2023-03-17T04:53:27;2.50;;;2.30;;
14377;SDS011;7272;53.668;9.578;2023-03-17T04:56:30;2.80;;;2.20;;
14377;SDS011;7272;53.668;9.578;2023-03-17T04:59:32;3.10;;;2.37;;
14377;SDS011;7272;53.668;9.578;2023-03-17T05:02:34;3.13;;;2.63;;
14377;SDS011;7272;53.668;9.578;2023-03-17T05:05:38;2.30;;;2.20;;
14377;SDS011;7272;53.668;9.578;2023-03-17T05:08:40;2.60;;;2.40;;
14377;SDS011;7272;53.668;9.578;2023-03-17T05:11:45;2.77;;;2.57;;
14377;SDS011;7272;53.668;9.578;2023-03-17T05:14:47;3.27;;;2.43;;
14377;SDS011;7272;53.668;9.578;2023-03-17T05:17:49;2.63;;;2.43;;
14377;SDS011;7272;53.668;9.578;2023-03-17T05:20:51;3.10;;;2.60;;
14377;SDS011;7272;53.668;9.578;2023-03-17T05:23:54;3.30;;;2.40;;
14377;SDS011;7272;53.668;9.578;2023-03-17T05:26:57;2.80;;;2.50;;
14377;SDS011;7272;53.668;9.578;2023-03-17T05:29:59;2.57;;;2.43;;
14377;SDS011;7272;53.668;9.578;2023-03-17T05:33:02;3.73;;;2.53;;
14377;SDS011;7272;53.668;9.578;2023-03-17T05:36:04;3.20;;;2.93;;
14377;SDS011;7272;53.668;9.578;2023-03-17T05:39:07;2.50;;;2.30;;
14377;SDS011;7272;53.668;9.578;2023-03-17T05:42:10;3.70;;;2.60;;
14377;SDS011;7272;53.668;9.578;2023-03-17T05:45:13;2.47;;;2.30;;
14377;SDS011;7272;53.668;9.578;2023-03-17T05:48:15;2.90;;;2.60;;
14377;SDS011;7272;53.668;9.578;2023-03-17T05:51:17;3.03;;;2.80;;
14377;SDS011;7272;53.668;9.578;2023-03-17T05:54:19;4.77;;;3.10;;
14377;SDS011;7272;53.668;9.578;2023-03-17T05:57:24;2.67;;;2.47;;
14377;SDS011;7272;53.668;9.578;2023-03-17T06:00:26;2.50;;;2.40;;
14377;SDS011;7272;53.668;9.578;2023-03-17T06:03:28;3.10;;;2.80;;
14377;SDS011;7272;53.668;9.578;2023-03-17T06:06:30;2.97;;;2.67;;
14377;SDS011;7272;53.668;9.578;2023-03-17T06:09:33;2.80;;;2.60;;
14377;SDS011;7272;53.668;9.578;2023-03-17T06:12:36;3.10;;;2.80;;
14377;SDS011;7272;53.668;9.578;2023-03-17T06:15:38;3.40;;;2.67;;
14377;SDS011;7272;53.668;9.578;2023-03-17T06:18:41;2.87;;;2.57;;
14377;SDS011;7272;53.668;9.578;2023-03-17T06:21:43;2.97;;;2.37;;
14377;SDS011;7272;53.668;9.578;2023-03-17T06:24:45;3.53;;;2.80;;
14377;SDS011;7272;53.668;9.578;2023-03-17T06:27:49;2.90;;;2.70;;
14377;SDS011;7272;53.668;9.578;2023-03-17T06:30:53;3.13;;;2.83;;
14377;SDS011;7272;53.668;9.578;2023-03-17T06:33:55;4.70;;;3.00;;
14377;SDS011;7272;53.668;9.578;2023-03-17T06:36:57;2.90;;;2.70;;
14377;SDS011;7272;53.668;9.578;2023-03-17T06:39:59;3.27;;;2.97;;
14377;SDS011;7272;53.668;9.578;2023-03-17T06:43:06;3.73;;;2.80;;
14377;SDS011;7272;53.668;9.578;2023-03-17T06:46:07;3.10;;;2.80;;
14377;SDS011;7272;53.668;9.578;2023-03-17T06:49:09;3.00;;;2.80;;
14377;SDS011;7272;53.668;9.578;2023-03-17T06:52:12;3.27;;;2.97;;
14377;SDS011;7272;53.668;9.578;2023-03-17T06:55:14;3.80;;;3.20;;
14377;SDS011;7272;53.668;9.578;2023-03-17T06:58:18;3.10;;;2.80;;
14377;SDS011;7272;53.668;9.578;2023-03-17T07:01:20;2.97;;;2.73;;
14377;SDS011;7272;53.668;9.578;2023-03-17T07:04:23;3.00;;;2.70;;
14377;SDS011;7272;53.668;9.578;2023-03-17T07:07:25;3.47;;;3.17;;
14377;SDS011;7272;53.668;9.578;2023-03-17T07:10:27;3.50;;;3.00;;
14377;SDS011;7272;53.668;9.578;2023-03-17T07:13:31;4.07;;;2.80;;
14377;SDS011;7272;53.668;9.578;2023-03-17T07:16:34;5.67;;;3.40;;
14377;SDS011;7272;53.668;9.578;2023-03-17T07:19:36;3.50;;;3.20;;
14377;SDS011;7272;53.668;9.578;2023-03-17T07:22:39;3.43;;;3.13;;
14377;SDS011;7272;53.668;9.578;2023-03-17T07:25:41;3.07;;;2.80;;
14377;SDS011;7272;53.668;9.578;2023-03-17T07:28:46;3.07;;;2.87;;
14377;SDS011;7272;53.668;9.578;2023-03-17T07:31:48;3.00;;;2.73;;
14377;SDS011;7272;53.668;9.578;2023-03-17T07:34:50;3.40;;;3.10;;
14377;SDS011;7272;53.668;9.578;2023-03-17T07:37:52;3.60;;;2.63;;
14377;SDS011;7272;53.668;9.578;2023-03-17T07:40:56;3.10;;;2.80;;
14377;SDS011;7272;53.668;9.578;2023-03-17T07:43:59;3.30;;;3.00;;
14377;SDS011;7272;53.668;9.578;2023-03-17T07:47:03;5.60;;;2.97;;
14377;SDS011;7272;53.668;9.578;2023-03-17T07:50:05;4.00;;;3.60;;
14377;SDS011;7272;53.668;9.578;2023-03-17T07:53:07;2.93;;;2.73;;
14377;SDS011;7272;53.668;9.578;2023-03-17T07:56:10;3.00;;;2.80;;
14377;SDS011;7272;53.668;9.578;2023-03-17T07:59:13;3.03;;;2.83;;
14377;SDS011;7272;53.668;9.578;2023-03-17T08:02:16;3.33;;;3.03;;
14377;SDS011;7272;53.668;9.578;2023-03-17T08:05:19;3.60;;;3.30;;
14377;SDS011;7272;53.668;9.578;2023-03-17T08:08:21;3.70;;;3.30;;
14377;SDS011;7272;53.668;9.578;2023-03-17T08:11:23;3.40;;;2.90;;
14377;SDS011;7272;53.668;9.578;2023-03-17T08:14:26;3.50;;;3.20;;
14377;SDS011;7272;53.668;9.578;2023-03-17T08:17:28;3.50;;;2.93;;
14377;SDS011;7272;53.668;9.578;2023-03-17T08:20:31;3.07;;;2.77;;
14377;SDS011;7272;53.668;9.578;2023-03-17T08:23:33;3.40;;;2.90;;
14377;SDS011;7272;53.668;9.578;2023-03-17T08:26:35;3.10;;;2.80;;
14377;SDS011;7272;53.668;9.578;2023-03-17T08:29:39;3.40;;;3.10;;
14377;SDS011;7272;53.668;9.578;2023-03-17T08:32:41;3.20;;;2.83;;
14377;SDS011;7272;53.668;9.578;2023-03-17T08:35:43;3.30;;;3.00;;
14377;SDS011;7272;53.668;9.578;2023-03-17T08:38:45;5.10;;;3.13;;
14377;SDS011;7272;53.668;9.578;2023-03-17T08:41:48;3.30;;;3.00;;
14377;SDS011;7272;53.668;9.578;2023-03-17T08:44:51;3.33;;;2.50;;
14377;SDS011;7272;53.668;9.578;2023-03-17T08:47:53;3.67;;;2.87;;
14377;SDS011;7272;53.668;9.578;2023-03-17T08:50:55;3.13;;;2.83;;
14377;SDS011;7272;53.668;9.578;2023-03-17T08:53:58;3.30;;;2.50;;
14377;SDS011;7272;53.668;9.578;2023-03-17T08:57:00;3.13;;;2.83;;
14377;SDS011;7272;53.668;9.578;2023-03-17T09:00:04;2.87;;;2.67;;
14377;SDS011;7272;53.668;9.578;2023-03-17T09:03:10;3.57;;;3.27;;
14377;SDS011;7272;53.668;9.578;2023-03-17T09:06:12;2.60;;;2.40;;
14377;SDS011;7272;53.668;9.578;2023-03-17T09:09:14;3.03;;;2.73;;
14377;SDS011;7272;53.668;9.578;2023-03-17T09:12:16;2.77;;;2.57;;
14377;SDS011;7272;53.668;9.578;2023-03-17T09:15:20;3.70;;;3.10;;
14377;SDS011;7272;53.668;9.578;2023-03-17T09:18:22;2.90;;;2.70;;
14377;SDS011;7272;53.668;9.578;2023-03-17T09:21:24;2.90;;;2.70;;
14377;SDS011;7272;53.668;9.578;2023-03-17T09:24:26;2.93;;;2.73;;
14377;SDS011;7272;53.668;9.578;2023-03-17T09:27:28;2.90;;;2.70;;
14377;SDS011;7272;53.668;9.578;2023-03-17T09:30:31;3.00;;;2.80;;
14377;SDS011;7272;53.668;9.578;2023-03-17T09:33:34;3.40;;;3.10;;
14377;SDS011;7272;53.668;9.578;2023-03-17T09:36:35;2.97;;;2.67;;
14377;SDS011;7272;53.668;9.578;2023-03-17T09:39:37;3.97;;;3.07;;
14377;SDS011;7272;53.668;9.578;2023-03-17T09:42:41;2.90;;;2.70;;
14377;SDS011;7272;53.668;9.578;2023-03-17T09:45:51;3.17;;;2.97;;
14377;SDS011;7272;53.668;9.578;2023-03-17T09:48:56;3.23;;;2.80;;
14377;SDS011;7272;53.668;9.578;2023-03-17T09:52:01;3.27;;;2.83;;
14377;SDS011;7272;53.668;9.578;2023-03-17T09:55:04;2.77;;;2.57;;
14377;SDS011;7272;53.668;9.578;2023-03-17T09:58:08;2.83;;;2.43;;
14377;SDS011;7272;53.668;9.578;2023-03-17T10:01:13;3.40;;;2.77;;
14377;SDS011;7272;53.668;9.578;2023-03-17T10:04:15;3.27;;;2.60;;
14377;SDS011;7272;53.668;9.578;2023-03-17T10:07:18;2.50;;;2.30;;
14377;SDS011;7272;53.668;9.578;2023-03-17T10:10:27;2.50;;;2.30;;
14377;SDS011;7272;53.668;9.578;2023-03-17T10:13:40;2.63;;;2.43;;
14377;SDS011;7272;53.668;9.578;2023-03-17T10:16:52;3.00;;;2.80;;
14377;SDS011;7272;53.668;9.578;2023-03-17T10:20:02;3.60;;;2.60;;
14377;SDS011;7272;53.668;9.578;2023-03-17T10:23:08;3.03;;;2.73;;
14377;SDS011;7272;53.668;9.578;2023-03-17T10:26:17;3.75;;;3.20;;
14377;SDS011;7272;53.668;9.578;2023-03-17T10:29:26;3.20;;;2.60;;
14377;SDS011;7272;53.668;9.578;2023-03-17T10:32:30;3.43;;;2.87;;
14377;SDS011;7272;53.668;9.578;2023-03-17T10:35:37;2.90;;;2.70;;
14377;SDS011;7272;53.668;9.578;2023-03-17T10:38:39;3.30;;;3.03;;
14377;SDS011;7272;53.668;9.578;2023-03-17T10:41:45;3.00;;;2.70;;
14377;SDS011;7272;53.668;9.578;2023-03-17T10:44:53;3.00;;;2.80;;
14377;SDS011;7272;53.668;9.578;2023-03-17T10:47:58;3.10;;;2.80;;
14377;SDS011;7272;53.668;9.578;2023-03-17T10:51:04;3.57;;;2.90;;
14377;SDS011;7272;53.668;9.578;2023-03-17T10:54:10;3.20;;;2.93;;
14377;SDS011;7272;53.668;9.578;2023-03-17T10:57:17;3.90;;;2.77;;
14377;SDS011;7272;53.668;9.578;2023-03-17T11:00:20;2.67;;;2.47;;
14377;SDS011;7272;53.668;9.578;2023-03-17T11:03:26;3.00;;;2.70;;
14377;SDS011;7272;53.668;9.578;2023-03-17T11:06:31;2.77;;;2.57;;
14377;SDS011;7272;53.668;9.578;2023-03-17T11:09:37;5.03;;;2.90;;
14377;SDS011;7272;53.668;9.578;2023-03-17T11:12:39;2.83;;;2.57;;
14377;SDS011;7272;53.668;9.578;2023-03-17T11:15:43;3.00;;;2.70;;
14377;SDS011;7272;53.668;9.578;2023-03-17T11:18:50;3.03;;;2.73;;
14377;SDS011;7272;53.668;9.578;2023-03-17T11:21:58;2.93;;;2.70;;
14377;SDS011;7272;53.668;9.578;2023-03-17T11:25:09;3.03;;;2.80;;
14377;SDS011;7272;53.668;9.578;2023-03-17T11:28:17;3.20;;;2.90;;
14377;SDS011;7272;53.668;9.578;2023-03-17T11:31:23;3.27;;;3.07;;
14377;SDS011;7272;53.668;9.578;2023-03-17T11:34:34;2.83;;;2.63;;
14377;SDS011;7272;53.668;9.578;2023-03-17T11:41:12;2.60;;;2.40;;
14377;SDS011;7272;53.668;9.578;2023-03-17T11:44:33;3.33;;;3.03;;
14377;SDS011;7272;53.668;9.578;2023-03-17T11:47:56;4.00;;;3.10;;
14377;SDS011;7272;53.668;9.578;2023-03-17T11:51:10;3.30;;;2.73;;
14377;SDS011;7272;53.668;9.578;2023-03-17T11:54:20;3.30;;;3.00;;
14377;SDS011;7272;53.668;9.578;2023-03-17T11:57:29;4.27;;;2.40;;
14377;SDS011;7272;53.668;9.578;2023-03-17T12:00:34;3.03;;;2.83;;
14377;SDS011;7272;53.668;9.578;2023-03-17T12:03:40;3.03;;;2.80;;
14377;SDS011;7272;53.668;9.578;2023-03-17T12:06:50;2.80;;;2.50;;
14377;SDS011;7272;53.668;9.578;2023-03-17T12:10:03;2.73;;;2.53;;
14377;SDS011;7272;53.668;9.578;2023-03-17T12:13:15;3.33;;;3.03;;
14377;SDS011;7272;53.668;9.578;2023-03-17T12:16:24;3.07;;;2.87;;
14377;SDS011;7272;53.668;9.578;2023-03-17T12:19:34;3.20;;;3.00;;
14377;SDS011;7272;53.668;9.578;2023-03-17T12:22:43;3.03;;;2.80;;
14377;SDS011;7272;53.668;9.578;2023-03-17T12:25:48;3.37;;;3.00;;
14377;SDS011;7272;53.668;9.578;2023-03-17T12:28:59;2.80;;;2.60;;
14377;SDS011;7272;53.668;9.578;2023-03-17T12:32:04;3.60;;;3.30;;
14377;SDS011;7272;53.668;9.578;2023-03-17T12:35:18;2.80;;;2.60;;
14377;SDS011;7272;53.668;9.578;2023-03-17T12:38:29;3.33;;;3.03;;
14377;SDS011;7272;53.668;9.578;2023-03-17T12:41:41;2.90;;;2.70;;
14377;SDS011;7272;53.668;9.578;2023-03-17T12:45:17;3.30;;;3.00;;
14377;SDS011;7272;53.668;9.578;2023-03-17T12:48:41;3.20;;;2.90;;
14377;SDS011;7272;53.668;9.578;2023-03-17T12:51:59;3.97;;;3.57;;
14377;SDS011;7272;53.668;9.578;2023-03-17T12:55:15;3.57;;;3.23;;
14377;SDS011;7272;53.668;9.578;2023-03-17T12:58:24;3.40;;;3.10;;
14377;SDS011;7272;53.668;9.578;2023-03-17T13:01:31;3.50;;;3.20;;
14377;SDS011;7272;53.668;9.578;2023-03-17T13:04:34;3.37;;;3.07;;
14377;SDS011;7272;53.668;9.578;2023-03-17T13:07:37;3.97;;;3.57;;
14377;SDS011;7272;53.668;9.578;2023-03-17T13:10:48;3.03;;;2.83;;
14377;SDS011;7272;53.668;9.578;2023-03-17T13:17:31;3.70;;;3.23;;
14377;SDS011;7272;53.668;9.578;2023-03-17T13:20:37;3.80;;;3.50;;
14377;SDS011;7272;53.668;9.578;2023-03-17T13:23:43;3.70;;;3.30;;
14377;SDS011;7272;53.668;9.578;2023-03-17T13:26:53;4.37;;;3.97;;
14377;SDS011;7272;53.668;9.578;2023-03-17T13:29:57;3.23;;;2.90;;
14377;SDS011;7272;53.668;9.578;2023-03-17T13:33:01;4.00;;;3.60;;
14377;SDS011;7272;53.668;9.578;2023-03-17T13:36:27;3.70;;;3.43;;
14377;SDS011;7272;53.668;9.578;2023-03-17T13:43:15;3.10;;;2.90;;
14377;SDS011;7272;53.668;9.578;2023-03-17T13:46:37;3.70;;;3.30;;
14377;SDS011;7272;53.668;9.578;2023-03-17T13:49:44;3.90;;;2.73;;
14377;SDS011;7272;53.668;9.578;2023-03-17T13:52:48;4.03;;;3.30;;
14377;SDS011;7272;53.668;9.578;2023-03-17T13:56:13;3.80;;;3.50;;
14377;SDS011;7272;53.668;9.578;2023-03-17T13:59:20;3.30;;;3.00;;
14377;SDS011;7272;53.668;9.578;2023-03-17T14:02:24;3.80;;;3.27;;
14377;SDS011;7272;53.668;9.578;2023-03-17T14:05:30;3.50;;;3.00;;
14377;SDS011;7272;53.668;9.578;2023-03-17T14:08:45;3.93;;;3.13;;
14377;SDS011;7272;53.668;9.578;2023-03-17T14:11:49;3.40;;;3.10;;
14377;SDS011;7272;53.668;9.578;2023-03-17T14:14:54;3.47;;;2.90;;
14377;SDS011;7272;53.668;9.578;2023-03-17T14:18:06;4.27;;;3.60;;
14377;SDS011;7272;53.668;9.578;2023-03-17T14:21:18;3.80;;;3.50;;
14377;SDS011;7272;53.668;9.578;2023-03-17T14:24:23;3.93;;;3.57;;
14377;SDS011;7272;53.668;9.578;2023-03-17T14:27:29;3.90;;;3.60;;
14377;SDS011;7272;53.668;9.578;2023-03-17T14:30:35;4.10;;;3.20;;
14377;SDS011;7272;53.668;9.578;2023-03-17T14:33:38;4.07;;;3.67;;
14377;SDS011;7272;53.668;9.578;2023-03-17T14:36:41;4.23;;;3.27;;
14377;SDS011;7272;53.668;9.578;2023-03-17T14:39:44;3.40;;;3.13;;
14377;SDS011;7272;53.668;9.578;2023-03-17T14:42:48;3.77;;;3.43;;
14377;SDS011;7272;53.668;9.578;2023-03-17T14:45:51;3.30;;;3.00;;
14377;SDS011;7272;53.668;9.578;2023-03-17T14:48:59;3.07;;;2.77;;
14377;SDS011;7272;53.668;9.578;2023-03-17T14:52:03;4.00;;;3.60;;
14377;SDS011;7272;53.668;9.578;2023-03-17T14:55:05;3.60;;;3.30;;
14377;SDS011;7272;53.668;9.578;2023-03-17T14:58:09;3.50;;;3.20;;
14377;SDS011;7272;53.668;9.578;2023-03-17T15:01:22;3.87;;;2.80;;
14377;SDS011;7272;53.668;9.578;2023-03-17T15:04:34;3.40;;;3.20;;
14377;SDS011;7272;53.668;9.578;2023-03-17T15:07:36;3.70;;;3.37;;
14377;SDS011;7272;53.668;9.578;2023-03-17T15:10:40;3.37;;;3.07;;
14377;SDS011;7272;53.668;9.578;2023-03-17T15:13:43;3.10;;;2.60;;
14377;SDS011;7272;53.668;9.578;2023-03-17T15:16:47;3.67;;;3.23;;
14377;SDS011;7272;53.668;9.578;2023-03-17T15:19:51;3.07;;;2.87;;
14377;SDS011;7272;53.668;9.578;2023-03-17T15:22:57;2.90;;;2.70;;
14377;SDS011;7272;53.668;9.578;2023-03-17T15:26:01;3.40;;;3.10;;
14377;SDS011;7272;53.668;9.578;2023-03-17T15:29:06;2.73;;;2.53;;
14377;SDS011;7272;53.668;9.578;2023-03-17T15:32:10;2.97;;;2.70;;
14377;SDS011;7272;53.668;9.578;2023-03-17T15:35:14;3.63;;;3.33;;
14377;SDS011;7272;53.668;9.578;2023-03-17T15:38:16;3.50;;;3.20;;
14377;SDS011;7272;53.668;9.578;2023-03-17T15:41:18;4.57;;;3.33;;
14377;SDS011;7272;53.668;9.578;2023-03-17T15:44:20;3.90;;;3.60;;
14377;SDS011;7272;53.668;9.578;2023-03-17T15:47:24;3.63;;;3.33;;
14377;SDS011;7272;53.668;9.578;2023-03-17T15:50:28;3.80;;;3.40;;
14377;SDS011;7272;53.668;9.578;2023-03-17T15:53:32;3.50;;;3.20;;
14377;SDS011;7272;53.668;9.578;2023-03-17T15:56:34;3.60;;;3.30;;
14377;SDS011;7272;53.668;9.578;2023-03-17T15:59:37;4.70;;;3.23;;
14377;SDS011;7272;53.668;9.578;2023-03-17T16:02:41;4.43;;;3.50;;
14377;SDS011;7272;53.668;9.578;2023-03-17T16:05:43;4.37;;;3.97;;
14377;SDS011;7272;53.668;9.578;2023-03-17T16:08:45;3.33;;;3.10;;
14377;SDS011;7272;53.668;9.578;2023-03-17T16:11:48;4.03;;;3.17;;
14377;SDS011;7272;53.668;9.578;2023-03-17T16:14:51;2.97;;;2.73;;
14377;SDS011;7272;53.668;9.578;2023-03-17T16:17:55;3.17;;;2.87;;
14377;SDS011;7272;53.668;9.578;2023-03-17T16:20:59;3.53;;;3.23;;
14377;SDS011;7272;53.668;9.578;2023-03-17T16:24:02;3.20;;;2.83;;
14377;SDS011;7272;53.668;9.578;2023-03-17T16:27:08;3.60;;;2.63;;
14377;SDS011;7272;53.668;9.578;2023-03-17T16:30:15;2.50;;;2.30;;
14377;SDS011;7272;53.668;9.578;2023-03-17T16:33:21;3.40;;;3.00;;
14377;SDS011;7272;53.668;9.578;2023-03-17T16:36:24;3.53;;;2.53;;
14377;SDS011;7272;53.668;9.578;2023-03-17T16:39:26;3.60;;;3.30;;
14377;SDS011;7272;53.668;9.578;2023-03-17T16:42:28;3.03;;;2.57;;
14377;SDS011;7272;53.668;9.578;2023-03-17T16:45:31;2.87;;;2.50;;
14377;SDS011;7272;53.668;9.578;2023-03-17T16:48:36;3.27;;;2.93;;
14377;SDS011;7272;53.668;9.578;2023-03-17T16:51:38;3.40;;;2.77;;
14377;SDS011;7272;53.668;9.578;2023-03-17T16:54:40;2.30;;;2.20;;
14377;SDS011;7272;53.668;9.578;2023-03-17T16:57:42;4.07;;;3.67;;
14377;SDS011;7272;53.668;9.578;2023-03-17T17:00:48;3.07;;;2.87;;
14377;SDS011;7272;53.668;9.578;2023-03-17T17:03:54;2.70;;;2.50;;
14377;SDS011;7272;53.668;9.578;2023-03-17T17:06:56;3.55;;;3.20;;
14377;SDS011;7272;53.668;9.578;2023-03-17T17:09:58;4.70;;;4.30;;
14377;SDS011;7272;53.668;9.578;2023-03-17T17:13:00;4.30;;;3.70;;
14377;SDS011;7272;53.668;9.578;2023-03-17T17:16:02;4.07;;;3.50;;
14377;SDS011;7272;53.668;9.578;2023-03-17T17:19:08;4.43;;;4.03;;
14377;SDS011;7272;53.668;9.578;2023-03-17T17:22:15;4.30;;;3.97;;
14377;SDS011;7272;53.668;9.578;2023-03-17T17:25:17;5.90;;;3.67;;
14377;SDS011;7272;53.668;9.578;2023-03-17T17:28:19;4.10;;;3.70;;
14377;SDS011;7272;53.668;9.578;2023-03-17T17:31:22;4.00;;;3.60;;
14377;SDS011;7272;53.668;9.578;2023-03-17T17:34:26;4.03;;;3.17;;
14377;SDS011;7272;53.668;9.578;2023-03-17T17:37:28;3.90;;;3.50;;
14377;SDS011;7272;53.668;9.578;2023-03-17T17:40:30;3.90;;;3.55;;
14377;SDS011;7272;53.668;9.578;2023-03-17T17:43:32;4.00;;;3.10;;
14377;SDS011;7272;53.668;9.578;2023-03-17T17:46:34;4.00;;;3.70;;
14377;SDS011;7272;53.668;9.578;2023-03-17T17:49:38;3.03;;;2.73;;
14377;SDS011;7272;53.668;9.578;2023-03-17T17:52:40;3.67;;;3.00;;
14377;SDS011;7272;53.668;9.578;2023-03-17T17:55:43;3.00;;;2.70;;
14377;SDS011;7272;53.668;9.578;2023-03-17T17:58:46;2.83;;;2.63;;
14377;SDS011;7272;53.668;9.578;2023-03-17T18:01:48;2.90;;;2.60;;
14377;SDS011;7272;53.668;9.578;2023-03-17T18:04:51;2.77;;;2.57;;
14377;SDS011;7272;53.668;9.578;2023-03-17T18:07:53;2.80;;;2.60;;
14377;SDS011;7272;53.668;9.578;2023-03-17T18:10:55;3.00;;;2.53;;
14377;SDS011;7272;53.668;9.578;2023-03-17T18:13:57;3.13;;;2.83;;
14377;SDS011;7272;53.668;9.578;2023-03-17T18:16:59;6.85;;;6.22;;
14377;SDS011;7272;53.668;9.578;2023-03-17T18:20:02;5.55;;;5.05;;
14377;SDS011;7272;53.668;9.578;2023-03-17T18:23:05;4.33;;;3.77;;
14377;SDS011;7272;53.668;9.578;2023-03-17T18:26:07;3.77;;;3.43;;
14377;SDS011;7272;53.668;9.578;2023-03-17T18:29:09;3.83;;;3.53;;
14377;SDS011;7272;53.668;9.578;2023-03-17T18:32:11;4.07;;;3.77;;
14377;SDS011;7272;53.668;9.578;2023-03-17T18:35:15;3.80;;;3.47;;
14377;SDS011;7272;53.668;9.578;2023-03-17T18:38:20;4.30;;;3.90;;
14377;SDS011;7272;53.668;9.578;2023-03-17T18:41:21;3.87;;;3.57;;
14377;SDS011;7272;53.668;9.578;2023-03-17T18:44:24;5.33;;;3.50;;
14377;SDS011;7272;53.668;9.578;2023-03-17T18:47:26;3.73;;;3.43;;
14377;SDS011;7272;53.668;9.578;2023-03-17T18:50:29;3.57;;;3.27;;
14377;SDS011;7272;53.668;9.578;2023-03-17T18:53:31;5.07;;;4.68;;
14377;SDS011;7272;53.668;9.578;2023-03-17T18:56:34;4.22;;;3.88;;
14377;SDS011;7272;53.668;9.578;2023-03-17T18:59:36;4.87;;;4.13;;
14377;SDS011;7272;53.668;9.578;2023-03-17T19:02:38;4.07;;;3.77;;